createdAt,value
2019-03-26T00:02:06.686Z,2.80
2019-03-26T00:04:35.376Z,2.80
2019-03-26T00:07:04.030Z,2.80
2019-03-26T00:09:32.743Z,2.80
2019-03-26T00:12:01.402Z,2.80
2019-03-26T00:14:30.117Z,2.90
2019-03-26T00:16:58.729Z,2.90
2019-03-26T00:19:27.386Z,2.90
2019-03-26T00:21:55.997Z,2.90
2019-03-26T00:24:24.757Z,2.90
2019-03-26T00:26:53.370Z,2.90
2019-03-26T00:29:22.025Z,2.90
2019-03-26T00:31:50.676Z,2.90
2019-03-26T00:34:19.867Z,2.90
2019-03-26T00:36:48.629Z,2.90
2019-03-26T00:39:17.285Z,2.90
2019-03-26T00:41:45.947Z,2.90
2019-03-26T00:44:14.560Z,2.90
2019-03-26T00:46:43.217Z,2.90
2019-03-26T00:49:11.875Z,2.90
2019-03-26T00:51:40.533Z,2.90
2019-03-26T00:54:09.135Z,2.90
2019-03-26T00:56:37.870Z,2.90
2019-03-26T00:59:06.572Z,2.90
2019-03-26T01:01:35.290Z,2.90
2019-03-26T01:04:04.018Z,2.90
2019-03-26T01:06:32.625Z,2.90
2019-03-26T01:09:01.288Z,2.90
2019-03-26T01:11:29.888Z,2.90
2019-03-26T01:13:58.582Z,2.90
2019-03-26T01:16:27.193Z,2.90
2019-03-26T01:18:55.955Z,2.90
2019-03-26T01:21:24.563Z,2.80
2019-03-26T01:23:53.215Z,2.90
2019-03-26T01:26:21.875Z,2.90
2019-03-26T01:28:50.530Z,2.80
2019-03-26T01:31:19.138Z,2.90
2019-03-26T01:33:47.796Z,2.90
2019-03-26T01:36:16.446Z,3.00
2019-03-26T01:38:45.057Z,3.00
2019-03-26T01:41:13.825Z,3.00
2019-03-26T01:43:42.436Z,3.00
2019-03-26T01:46:11.047Z,3.00
2019-03-26T01:48:39.700Z,3.00
2019-03-26T01:51:08.365Z,3.00
2019-03-26T01:53:37.015Z,3.00
2019-03-26T01:56:05.690Z,3.00
2019-03-26T01:58:34.350Z,3.00
2019-03-26T02:01:03.129Z,3.00
2019-03-26T02:03:31.784Z,3.00
2019-03-26T02:06:00.394Z,3.00
2019-03-26T02:08:29.051Z,3.00
2019-03-26T02:10:57.661Z,3.10
2019-03-26T02:13:26.267Z,3.10
2019-03-26T02:15:54.911Z,3.10
2019-03-26T02:18:23.520Z,3.10
2019-03-26T02:20:52.129Z,3.20
2019-03-26T02:23:20.785Z,3.20
2019-03-26T02:25:49.442Z,3.20
2019-03-26T02:28:18.051Z,3.20
2019-03-26T02:30:46.830Z,3.20
2019-03-26T02:33:15.441Z,3.20
2019-03-26T02:35:44.087Z,3.20
2019-03-26T02:38:12.765Z,3.20
2019-03-26T02:40:41.437Z,3.10
2019-03-26T02:43:10.049Z,3.10
2019-03-26T02:45:38.847Z,3.10
2019-03-26T02:48:07.569Z,3.10
2019-03-26T02:50:36.177Z,3.10
2019-03-26T02:53:08.498Z,3.10
2019-03-26T02:55:35.168Z,3.10
2019-03-26T02:58:03.831Z,3.00
2019-03-26T03:00:32.507Z,3.00
2019-03-26T03:03:01.111Z,3.00
2019-03-26T03:05:35.713Z,3.00
2019-03-26T03:08:00.095Z,2.90
2019-03-26T03:10:28.750Z,2.90
2019-03-26T03:12:57.512Z,2.90
2019-03-26T03:15:26.306Z,2.80
2019-03-26T03:17:54.906Z,2.80
2019-03-26T03:20:23.632Z,2.80
2019-03-26T03:22:52.246Z,2.80
2019-03-26T03:25:20.968Z,2.80
2019-03-26T03:27:49.652Z,2.80
2019-03-26T03:30:18.917Z,2.70
2019-03-26T03:32:47.525Z,2.70
2019-03-26T03:35:16.362Z,2.70
2019-03-26T03:37:45.020Z,2.60
2019-03-26T03:40:14.036Z,2.60
2019-03-26T03:42:42.963Z,2.60
2019-03-26T03:45:12.576Z,2.50
2019-03-26T03:47:42.570Z,2.50
2019-03-26T03:50:12.822Z,2.50
2019-03-26T03:52:41.721Z,2.50
2019-03-26T03:55:11.337Z,2.50
2019-03-26T03:57:40.322Z,2.50
2019-03-26T04:00:31.462Z,2.40
2019-03-26T04:03:01.067Z,2.40
2019-03-26T04:05:29.671Z,2.40
2019-03-26T04:07:58.325Z,2.40
2019-03-26T04:10:27.050Z,2.40
2019-03-26T04:12:55.782Z,2.50
2019-03-26T04:15:24.449Z,2.50
2019-03-26T04:17:53.048Z,2.50
2019-03-26T04:20:21.702Z,2.50
2019-03-26T04:22:50.333Z,2.60
2019-03-26T04:25:18.994Z,2.60
2019-03-26T04:27:47.592Z,2.70
2019-03-26T04:30:28.520Z,2.80
2019-03-26T04:32:57.171Z,2.90
2019-03-26T04:35:25.839Z,2.90
2019-03-26T04:37:54.438Z,3.00
2019-03-26T04:40:23.038Z,3.00
2019-03-26T04:42:51.694Z,3.10
2019-03-26T04:45:20.298Z,3.20
2019-03-26T04:47:48.942Z,3.20
2019-03-26T04:50:17.551Z,3.20
2019-03-26T04:52:46.203Z,3.30
2019-03-26T04:55:14.806Z,3.30
2019-03-26T04:57:43.458Z,3.30
2019-03-26T05:00:13.502Z,3.20
2019-03-26T05:02:42.152Z,3.20
2019-03-26T05:05:12.318Z,3.20
2019-03-26T05:07:41.224Z,3.10
2019-03-26T05:10:10.213Z,3.10
2019-03-26T05:12:38.819Z,3.00
2019-03-26T05:15:08.079Z,3.10
2019-03-26T05:17:36.687Z,3.10
2019-03-26T05:20:07.546Z,3.10
2019-03-26T05:22:36.618Z,3.10
2019-03-26T05:25:08.490Z,3.10
2019-03-26T05:27:45.363Z,3.20
2019-03-26T05:30:08.411Z,3.20
2019-03-26T05:32:37.399Z,3.20
2019-03-26T05:35:07.974Z,3.30
2019-03-26T05:37:36.700Z,3.40
2019-03-26T05:40:08.281Z,3.40
2019-03-26T05:42:37.784Z,3.50
2019-03-26T05:45:09.746Z,3.50
2019-03-26T05:47:38.356Z,3.50
2019-03-26T05:50:08.621Z,3.50
2019-03-26T05:52:37.960Z,3.50
2019-03-26T05:55:08.753Z,3.60
2019-03-26T05:57:37.786Z,3.70
2019-03-26T06:00:10.723Z,3.70
2019-03-26T06:02:39.322Z,3.80
2019-03-26T06:05:08.103Z,3.80
2019-03-26T06:07:36.754Z,3.80
2019-03-26T06:10:09.844Z,3.80
2019-03-26T06:12:38.562Z,3.80
2019-03-26T06:15:08.424Z,3.80
2019-03-26T06:17:37.025Z,3.80
2019-03-26T06:20:07.217Z,3.70
2019-03-26T06:22:35.822Z,3.70
2019-03-26T06:25:07.085Z,3.70
2019-03-26T06:27:35.687Z,3.70
2019-03-26T06:30:08.224Z,3.70
2019-03-26T06:32:37.096Z,3.70
2019-03-26T06:35:10.053Z,3.70
2019-03-26T06:37:38.660Z,3.80
2019-03-26T06:40:09.873Z,3.70
2019-03-26T06:42:38.520Z,3.80
2019-03-26T06:45:11.185Z,3.80
2019-03-26T06:47:39.790Z,3.70
2019-03-26T06:50:10.864Z,3.70
2019-03-26T06:52:39.464Z,3.70
2019-03-26T06:55:08.679Z,3.70
2019-03-26T06:57:37.832Z,3.70
2019-03-26T07:00:09.545Z,3.80
2019-03-26T07:02:38.757Z,3.80
2019-03-26T07:05:08.481Z,3.90
2019-03-26T07:07:37.136Z,3.90
2019-03-26T07:10:08.311Z,3.90
2019-03-26T07:12:37.033Z,4.00
2019-03-26T07:15:09.685Z,4.00
2019-03-26T07:17:38.409Z,4.10
2019-03-26T07:20:08.624Z,4.10
2019-03-26T07:22:37.473Z,4.20
2019-03-26T07:25:09.028Z,4.40
2019-03-26T07:27:38.038Z,4.40
2019-03-26T07:30:09.494Z,4.50
2019-03-26T07:32:38.174Z,4.50
2019-03-26T07:35:07.940Z,4.70
2019-03-26T07:37:45.021Z,4.80
2019-03-26T07:40:08.212Z,4.90
2019-03-26T07:42:36.912Z,5.00
2019-03-26T07:45:07.502Z,5.00
2019-03-26T07:47:36.107Z,5.10
2019-03-26T07:50:06.767Z,5.00
2019-03-26T07:52:35.376Z,5.00
2019-03-26T07:55:06.232Z,5.10
2019-03-26T07:57:35.029Z,5.00
2019-03-26T08:00:09.743Z,5.00
2019-03-26T08:02:38.351Z,5.00
2019-03-26T08:05:10.423Z,5.00
2019-03-26T08:07:39.071Z,5.00
2019-03-26T08:10:09.690Z,5.10
2019-03-26T08:12:38.345Z,5.20
2019-03-26T08:15:08.468Z,5.10
2019-03-26T08:17:37.372Z,5.20
2019-03-26T08:20:08.706Z,5.40
2019-03-26T08:22:37.357Z,5.40
2019-03-26T08:25:07.973Z,5.50
2019-03-26T08:27:36.701Z,5.70
2019-03-26T08:30:08.701Z,5.80
2019-03-26T08:32:37.429Z,5.90
2019-03-26T08:35:06.936Z,6.20
2019-03-26T08:37:35.786Z,6.30
2019-03-26T08:40:07.442Z,6.40
2019-03-26T08:42:36.201Z,6.50
2019-03-26T08:45:09.871Z,6.50
2019-03-26T08:47:38.527Z,6.60
2019-03-26T08:50:08.441Z,6.40
2019-03-26T08:52:37.160Z,6.50
2019-03-26T08:55:09.783Z,6.70
2019-03-26T08:57:38.504Z,6.70
2019-03-26T09:00:09.571Z,6.80
2019-03-26T09:02:38.285Z,6.80
2019-03-26T09:05:08.076Z,6.90
2019-03-26T09:07:36.733Z,6.90
2019-03-26T09:10:09.038Z,6.90
2019-03-26T09:12:39.569Z,7.00
2019-03-26T09:15:10.284Z,6.90
2019-03-26T09:17:40.122Z,7.00
2019-03-26T09:20:10.075Z,7.00
2019-03-26T09:22:38.678Z,7.00
2019-03-26T09:25:07.940Z,7.00
2019-03-26T09:27:36.545Z,7.10
2019-03-26T09:30:08.689Z,7.20
2019-03-26T09:32:38.792Z,7.30
2019-03-26T09:35:10.273Z,7.40
2019-03-26T09:37:38.997Z,7.50
2019-03-26T09:40:09.416Z,7.50
2019-03-26T09:42:38.811Z,7.60
2019-03-26T09:45:09.926Z,7.70
2019-03-26T09:47:38.580Z,7.80
2019-03-26T09:50:10.091Z,7.70
2019-03-26T09:52:38.820Z,7.70
2019-03-26T09:55:08.933Z,7.70
2019-03-26T09:57:37.955Z,7.80
2019-03-26T10:00:11.656Z,7.70
2019-03-26T10:02:43.144Z,7.60
2019-03-26T10:05:11.218Z,7.60
2019-03-26T10:07:39.828Z,7.70
2019-03-26T10:10:09.474Z,7.80
2019-03-26T10:12:38.081Z,7.80
2019-03-26T10:15:06.933Z,8.00
2019-03-26T10:17:36.419Z,8.20
2019-03-26T10:20:07.244Z,8.20
2019-03-26T10:22:37.613Z,8.30
2019-03-26T10:25:10.850Z,8.20
2019-03-26T10:27:38.439Z,8.10
2019-03-26T10:30:10.877Z,8.10
2019-03-26T10:32:40.097Z,8.30
2019-03-26T10:35:09.344Z,8.30
2019-03-26T10:37:38.003Z,8.30
2019-03-26T10:40:08.420Z,8.30
2019-03-26T10:42:37.076Z,8.50
2019-03-26T10:45:07.455Z,8.60
2019-03-26T10:47:36.068Z,8.60
2019-03-26T10:50:07.087Z,8.70
2019-03-26T10:52:35.737Z,8.80
2019-03-26T10:55:06.156Z,8.70
2019-03-26T10:57:35.459Z,8.80
2019-03-26T11:00:06.875Z,8.90
2019-03-26T11:02:35.536Z,8.80
2019-03-26T11:05:07.247Z,8.80
2019-03-26T11:07:36.072Z,8.70
2019-03-26T11:10:08.612Z,8.60
2019-03-26T11:12:37.290Z,8.70
2019-03-26T11:15:10.296Z,8.70
2019-03-26T11:17:39.470Z,8.70
2019-03-26T11:20:10.338Z,8.80
2019-03-26T11:22:39.016Z,9.00
2019-03-26T11:25:11.956Z,9.30
2019-03-26T11:27:39.370Z,9.30
2019-03-26T11:30:08.872Z,9.30
2019-03-26T11:32:37.897Z,9.10
2019-03-26T11:35:08.157Z,9.10
2019-03-26T11:37:37.935Z,9.20
2019-03-26T11:40:07.830Z,9.30
2019-03-26T11:42:36.489Z,9.10
2019-03-26T11:45:09.604Z,9.00
2019-03-26T11:47:39.710Z,8.70
2019-03-26T11:50:09.766Z,8.60
2019-03-26T11:52:39.620Z,8.60
2019-03-26T11:55:10.189Z,8.40
2019-03-26T11:57:38.856Z,8.20
2019-03-26T12:00:12.694Z,8.30
2019-03-26T12:02:41.306Z,8.40
2019-03-26T12:05:10.267Z,8.60
2019-03-26T12:07:38.873Z,8.60
2019-03-26T12:10:08.538Z,8.50
2019-03-26T12:12:37.458Z,8.40
2019-03-26T12:15:08.026Z,8.40
2019-03-26T12:17:36.682Z,8.50
2019-03-26T12:20:09.408Z,8.50
2019-03-26T12:22:38.132Z,8.50
2019-03-26T12:25:07.651Z,8.50
2019-03-26T12:27:36.834Z,8.50
2019-03-26T12:30:09.166Z,8.40
2019-03-26T12:32:40.672Z,8.40
2019-03-26T12:35:09.374Z,8.40
2019-03-26T12:37:38.025Z,8.10
2019-03-26T12:40:07.669Z,7.70
2019-03-26T12:42:37.935Z,7.50
2019-03-26T12:45:07.716Z,7.20
2019-03-26T12:47:36.361Z,7.00
2019-03-26T12:50:07.222Z,7.20
2019-03-26T12:52:35.830Z,7.30
2019-03-26T12:55:06.097Z,7.60
2019-03-26T12:57:34.709Z,7.80
2019-03-26T13:00:04.942Z,8.00
2019-03-26T13:02:35.887Z,8.10
2019-03-26T13:05:07.308Z,8.20
2019-03-26T13:07:35.984Z,8.20
2019-03-26T13:10:13.720Z,8.10
2019-03-26T13:12:38.484Z,8.20
2019-03-26T13:15:07.777Z,8.40
2019-03-26T13:17:36.385Z,8.90
2019-03-26T13:20:06.648Z,9.80
2019-03-26T13:22:37.020Z,9.40
2019-03-26T13:25:07.732Z,9.20
2019-03-26T13:27:37.069Z,11.10
2019-03-26T13:30:08.615Z,9.90
2019-03-26T13:32:37.270Z,10.80
2019-03-26T13:35:09.133Z,12.60
2019-03-26T13:37:37.789Z,13.30
2019-03-26T13:40:07.331Z,13.40
2019-03-26T13:42:35.991Z,13.20
2019-03-26T13:45:07.060Z,12.40
2019-03-26T13:47:35.675Z,12.50
2019-03-26T13:50:07.244Z,12.10
2019-03-26T13:52:35.923Z,11.30
2019-03-26T13:55:07.791Z,10.90
2019-03-26T13:57:36.399Z,10.40
2019-03-26T14:00:11.983Z,10.30
2019-03-26T14:02:40.599Z,10.30
2019-03-26T14:05:27.895Z,10.10
2019-03-26T14:07:56.508Z,10.10
2019-03-26T14:10:25.164Z,9.80
2019-03-26T14:12:53.764Z,9.50
2019-03-26T14:15:22.416Z,9.20
2019-03-26T14:17:51.138Z,9.30
2019-03-26T14:20:20.381Z,9.30
2019-03-26T14:22:49.308Z,9.30
2019-03-26T14:25:17.987Z,9.10
2019-03-26T14:27:46.642Z,9.00
2019-03-26T14:30:16.659Z,9.00
2019-03-26T14:32:45.315Z,9.00
2019-03-26T14:35:13.994Z,8.70
2019-03-26T14:37:51.033Z,8.40
2019-03-26T14:40:13.263Z,8.00
2019-03-26T14:42:41.917Z,7.70
2019-03-26T14:45:10.808Z,7.40
2019-03-26T14:47:39.460Z,7.50
2019-03-26T14:50:08.723Z,7.40
2019-03-26T14:52:37.331Z,7.40
2019-03-26T14:55:07.357Z,7.50
2019-03-26T14:57:35.961Z,8.00
2019-03-26T15:00:07.992Z,8.70
2019-03-26T15:02:36.673Z,10.00
2019-03-26T15:05:07.842Z,11.00
2019-03-26T15:07:36.453Z,9.80
2019-03-26T15:10:07.123Z,9.40
2019-03-26T15:12:35.731Z,9.30
2019-03-26T15:15:05.938Z,9.30
2019-03-26T15:17:34.636Z,9.00
2019-03-26T15:20:05.779Z,8.90
2019-03-26T15:22:34.387Z,8.90
2019-03-26T15:25:03.979Z,9.10
2019-03-26T15:27:32.634Z,9.10
2019-03-26T15:30:01.236Z,9.20
2019-03-26T15:32:29.895Z,9.90
2019-03-26T15:34:58.501Z,10.60
2019-03-26T15:37:27.160Z,10.50
2019-03-26T15:39:55.775Z,10.20
2019-03-26T15:42:24.427Z,9.90
2019-03-26T15:44:53.032Z,9.50
2019-03-26T15:47:21.763Z,9.40
2019-03-26T15:49:50.372Z,9.30
2019-03-26T15:52:19.026Z,9.30
2019-03-26T15:54:47.628Z,9.20
2019-03-26T15:57:16.288Z,9.40
2019-03-26T15:59:44.895Z,9.40
2019-03-26T16:02:13.552Z,9.30
2019-03-26T16:04:42.155Z,9.30
2019-03-26T16:07:10.815Z,9.10
2019-03-26T16:09:39.470Z,9.20
2019-03-26T16:12:08.129Z,9.20
2019-03-26T16:14:36.781Z,9.10
2019-03-26T16:17:05.391Z,9.10
2019-03-26T16:19:36.469Z,9.00
2019-03-26T16:22:04.477Z,9.00
2019-03-26T16:24:33.130Z,8.90
2019-03-26T16:27:01.793Z,8.80
2019-03-26T16:29:30.389Z,8.80
2019-03-26T16:31:59.045Z,8.90
2019-03-26T16:34:27.653Z,8.90
2019-03-26T16:36:59.768Z,8.90
2019-03-26T16:39:26.703Z,8.80
2019-03-26T16:41:55.316Z,8.70
2019-03-26T16:44:23.944Z,8.70
2019-03-26T16:46:52.608Z,8.70
2019-03-26T16:49:21.271Z,8.70
2019-03-26T16:51:50.877Z,8.70
2019-03-26T16:54:19.702Z,8.70
2019-03-26T16:56:48.439Z,8.60
2019-03-26T16:59:17.047Z,8.60
2019-03-26T17:01:45.704Z,8.70
2019-03-26T17:04:14.353Z,8.70
2019-03-26T17:06:43.011Z,8.60
2019-03-26T17:09:11.673Z,8.50
2019-03-26T17:11:40.273Z,8.40
2019-03-26T17:14:08.932Z,8.40
2019-03-26T17:16:37.542Z,8.40
2019-03-26T17:19:06.189Z,8.40
2019-03-26T17:21:34.873Z,8.40
2019-03-26T17:24:03.678Z,8.40
2019-03-26T17:26:32.284Z,8.30
2019-03-26T17:29:00.897Z,8.30
2019-03-26T17:31:29.546Z,8.30
2019-03-26T17:33:58.201Z,8.30
2019-03-26T17:36:27.005Z,8.30
2019-03-26T17:38:55.663Z,8.20
2019-03-26T17:41:24.319Z,8.20
2019-03-26T17:43:52.922Z,8.10
2019-03-26T17:46:21.584Z,8.10
2019-03-26T17:48:50.197Z,8.10
2019-03-26T17:51:18.808Z,8.10
2019-03-26T17:53:47.466Z,8.00
2019-03-26T17:56:16.122Z,8.00
2019-03-26T17:58:44.778Z,8.00
2019-03-26T18:01:13.426Z,7.90
2019-03-26T18:03:42.034Z,7.90
2019-03-26T18:06:10.729Z,7.90
2019-03-26T18:08:39.335Z,7.80
2019-03-26T18:11:07.947Z,7.70
2019-03-26T18:13:36.604Z,7.80
2019-03-26T18:16:05.278Z,7.70
2019-03-26T18:18:33.886Z,7.60
2019-03-26T18:21:02.544Z,7.60
2019-03-26T18:23:31.155Z,7.60
2019-03-26T18:25:59.819Z,7.70
2019-03-26T18:28:28.419Z,7.60
2019-03-26T18:30:57.086Z,7.60
2019-03-26T18:33:25.695Z,7.50
2019-03-26T18:35:54.302Z,7.50
2019-03-26T18:38:22.955Z,7.50
2019-03-26T18:40:51.563Z,7.50
2019-03-26T18:43:20.217Z,7.50
2019-03-26T18:45:48.887Z,7.50
2019-03-26T18:48:17.547Z,7.50
2019-03-26T18:50:46.148Z,7.60
2019-03-26T18:53:14.808Z,7.60
2019-03-26T18:55:43.435Z,7.50
2019-03-26T18:58:12.142Z,7.50
2019-03-26T19:00:40.756Z,7.50
2019-03-26T19:03:09.588Z,7.50
2019-03-26T19:05:38.270Z,7.40
2019-03-26T19:08:06.946Z,7.40
2019-03-26T19:10:36.044Z,7.30
2019-03-26T19:13:17.983Z,7.30
2019-03-26T19:15:35.588Z,7.20
2019-03-26T19:18:04.651Z,7.20
2019-03-26T19:20:33.454Z,7.10
2019-03-26T19:23:02.165Z,7.20
2019-03-26T19:25:30.815Z,7.20
2019-03-26T19:27:59.419Z,7.20
2019-03-26T19:30:28.142Z,7.20
2019-03-26T19:32:57.850Z,7.20
2019-03-26T19:35:26.783Z,7.20
2019-03-26T19:37:55.390Z,7.20
2019-03-26T19:40:24.081Z,7.20
2019-03-26T19:42:52.730Z,7.10
2019-03-26T19:45:21.556Z,7.10
2019-03-26T19:47:50.288Z,7.10
2019-03-26T19:50:19.074Z,7.10
2019-03-26T19:52:47.723Z,7.10
2019-03-26T19:55:16.322Z,7.10
2019-03-26T19:57:44.985Z,7.10
2019-03-26T20:00:15.602Z,7.10
2019-03-26T20:02:44.252Z,7.10
2019-03-26T20:05:13.844Z,7.10
2019-03-26T20:07:42.456Z,7.10
2019-03-26T20:10:12.979Z,7.10
2019-03-26T20:12:41.614Z,7.20
2019-03-26T20:15:13.114Z,7.10
2019-03-26T20:17:41.728Z,7.10
2019-03-26T20:20:11.888Z,7.20
2019-03-26T20:22:40.498Z,7.20
2019-03-26T20:25:09.765Z,7.30
2019-03-26T20:27:38.440Z,7.30
2019-03-26T20:30:08.410Z,7.30
2019-03-26T20:32:37.019Z,7.20
2019-03-26T20:35:07.983Z,7.20
2019-03-26T20:37:36.583Z,7.10
2019-03-26T20:40:10.711Z,7.10
2019-03-26T20:42:39.370Z,7.00
2019-03-26T20:45:10.503Z,7.00
2019-03-26T20:47:39.605Z,7.00
2019-03-26T20:50:10.024Z,7.00
2019-03-26T20:52:38.735Z,7.00
2019-03-26T20:55:10.051Z,6.90
2019-03-26T20:57:38.706Z,6.90
2019-03-26T21:00:11.566Z,6.80
2019-03-26T21:02:40.213Z,6.80
2019-03-26T21:05:09.206Z,6.80
2019-03-26T21:07:38.451Z,6.70
2019-03-26T21:10:08.515Z,6.80
2019-03-26T21:12:37.188Z,6.80
2019-03-26T21:15:09.884Z,6.70
2019-03-26T21:17:38.677Z,6.70
2019-03-26T21:20:11.316Z,6.70
2019-03-26T21:22:39.923Z,6.70
2019-03-26T21:25:10.188Z,6.70
2019-03-26T21:27:38.850Z,6.60
2019-03-26T21:30:15.820Z,6.70
2019-03-26T21:32:44.318Z,6.70
2019-03-26T21:35:14.943Z,6.70
2019-03-26T21:37:43.597Z,6.70
2019-03-26T21:40:12.907Z,6.70
2019-03-26T21:42:41.563Z,6.70
2019-03-26T21:45:11.971Z,6.60
2019-03-26T21:47:40.696Z,6.60
2019-03-26T21:50:09.900Z,6.60
2019-03-26T21:52:38.613Z,6.60
2019-03-26T21:55:09.470Z,6.50
2019-03-26T21:57:38.135Z,6.50
2019-03-26T22:00:08.747Z,6.60
2019-03-26T22:02:37.744Z,6.60
2019-03-26T22:05:08.353Z,6.60
2019-03-26T22:07:37.082Z,6.60
2019-03-26T22:10:07.822Z,6.60
2019-03-26T22:12:36.464Z,6.60
2019-03-26T22:15:10.523Z,6.60
2019-03-26T22:17:39.200Z,6.60
2019-03-26T22:20:09.642Z,6.60
2019-03-26T22:22:38.240Z,6.50
2019-03-26T22:25:08.775Z,6.50
2019-03-26T22:27:37.425Z,6.50
2019-03-26T22:30:10.116Z,6.40
2019-03-26T22:32:38.716Z,6.40
2019-03-26T22:35:08.677Z,6.30
2019-03-26T22:37:37.288Z,6.20
2019-03-26T22:40:07.777Z,6.20
2019-03-26T22:42:36.426Z,6.20
2019-03-26T22:45:09.884Z,6.20
2019-03-26T22:47:41.476Z,6.20
2019-03-26T22:50:13.038Z,6.10
2019-03-26T22:52:41.703Z,6.20
2019-03-26T22:55:11.115Z,6.10
2019-03-26T22:57:39.882Z,6.10
2019-03-26T23:00:17.738Z,6.10
2019-03-26T23:02:46.662Z,6.10
2019-03-26T23:05:16.175Z,6.10
2019-03-26T23:07:44.888Z,6.00
2019-03-26T23:10:15.152Z,6.00
2019-03-26T23:12:43.825Z,5.90
2019-03-26T23:15:24.453Z,5.90
2019-03-26T23:17:53.124Z,5.80
2019-03-26T23:20:21.779Z,5.80
2019-03-26T23:22:50.506Z,5.80
2019-03-26T23:25:19.233Z,5.70
2019-03-26T23:27:47.900Z,5.70
2019-03-26T23:30:18.090Z,5.60
2019-03-26T23:32:46.754Z,5.60
2019-03-26T23:35:15.430Z,5.60
2019-03-26T23:37:44.351Z,5.60
2019-03-26T23:40:13.496Z,5.50
2019-03-26T23:42:42.201Z,5.50
2019-03-26T23:45:11.434Z,5.50
2019-03-26T23:47:40.083Z,5.40
2019-03-26T23:50:09.293Z,5.50
2019-03-26T23:52:38.118Z,5.40
2019-03-26T23:55:08.236Z,5.40
2019-03-26T23:57:37.654Z,5.40
